Portada
METAR-TAF:

METAR-TAF

Aeroports :

Colombo, Sri Lanka

latitud: 07-10N, longitud: 079-53E, altitud: 8 m

Observació

L'informe es va fer fa 54 minuts, a les 22:10 UTC
Vent 2 kt amb direcció variable
Temperatura 24°C
Humitat 94%
Pressió 1009 hPa
Visibilitat: 9000 m
Escasses núvols a una alçada de 1700 ft

METAR: VCBI 192210Z VRB02KT 9000 FEW017 24/23 Q1009 NOSIG

Hora: 04:34 (23:04 UTC)

Pronòstic

L'informe es va fer fa 6 hores i 4 minuts, a les 17:00 UTC
Pronòstic vàlid del 19 a les 18 UTC al 20 a les 24 UTC
Vent 6 kt amb direcció variable
Visibilitat 10 km o més
Escasses núvols a una alçada de 1800 ft
Probabilitat 40% :
Temporalment
l' 20 a les 10 UTC al 20 a les 16 UTC
Visibilitat: 6000 m
Núvols disperses a una alçada de 1600 ft
Escasses núvols a una alçada de 1800 ft, Cumulonimbus.

TAF: VCBI 191700Z 1918/2024 VRB06KT 9999 FEW018 TX31/2008Z TN24/2000Z PROB40 TEMPO 2010/2016 6000 -TSRA/SHRA SCT016 FEW018CB

Observacions i pronòstics meteorològics de més de 4000 aeroports (METAR i TAF).

Les estacions disponibles són els punts grocs i vermells al mapa.

Posi el ratolí al punt desitjat per veure el nom de l'estació.

Feu clic per veure les observacions i els pronòstics meteorològics.

Per canviar el mapa: feu clic els botons verds amb una creu de color negre per apropar; al botó verd amb un guió per allunyar la imatge; o en les fletxes verdes per a mapes adjacents.


METAR-TAF: